createdAt,value
2024-04-19T00:01:59.350Z,2.54
2024-04-19T00:04:29.134Z,2.56
2024-04-19T00:06:56.869Z,2.54
2024-04-19T00:09:27.061Z,2.54
2024-04-19T00:11:54.250Z,2.50
2024-04-19T00:14:26.566Z,2.50
2024-04-19T00:16:53.771Z,2.48
2024-04-19T00:19:23.635Z,2.46
2024-04-19T00:21:50.812Z,2.45
2024-04-19T00:24:20.591Z,2.40
2024-04-19T00:26:47.697Z,2.39
2024-04-19T00:29:17.575Z,2.38
2024-04-19T00:31:47.342Z,2.34
2024-04-19T00:34:17.157Z,2.33
2024-04-19T00:36:44.260Z,2.32
2024-04-19T00:39:14.010Z,2.29
2024-04-19T00:41:41.146Z,2.29
2024-04-19T00:44:10.849Z,2.25
2024-04-19T00:46:38.431Z,2.25
2024-04-19T00:49:11.447Z,2.24
2024-04-19T00:51:39.570Z,2.23
2024-04-19T00:54:09.501Z,2.24
2024-04-19T00:56:37.087Z,2.24
2024-04-19T00:59:06.913Z,2.22
2024-04-19T01:01:35.801Z,2.15
2024-04-19T01:04:05.655Z,2.21
2024-04-19T01:06:35.475Z,2.17
2024-04-19T01:09:07.736Z,2.18
2024-04-19T01:11:35.125Z,2.16
2024-04-19T01:14:04.831Z,2.18
2024-04-19T01:16:31.994Z,2.17
2024-04-19T01:19:02.027Z,2.19
2024-04-19T01:21:30.126Z,2.19
2024-04-19T01:24:07.957Z,2.16
2024-04-19T01:26:37.705Z,2.15
2024-04-19T01:29:07.444Z,2.13
2024-04-19T01:31:34.572Z,2.12
2024-04-19T01:34:04.376Z,2.11
2024-04-19T01:36:31.569Z,2.10
2024-04-19T01:39:01.343Z,2.09
2024-04-19T01:41:28.504Z,2.09
2024-04-19T01:44:00.810Z,2.05
2024-04-19T01:46:27.908Z,2.08
2024-04-19T01:48:57.803Z,2.07
2024-04-19T01:51:24.974Z,2.08
2024-04-19T01:53:54.724Z,2.08
2024-04-19T01:56:21.886Z,2.07
2024-04-19T01:58:51.643Z,2.00
2024-04-19T02:01:22.673Z,2.06
2024-04-19T02:03:52.602Z,2.07
2024-04-19T02:06:19.882Z,2.05
2024-04-19T02:08:49.705Z,2.04
2024-04-19T02:11:16.897Z,2.02
2024-04-19T02:13:46.735Z,2.00
2024-04-19T02:16:13.946Z,1.99
2024-04-19T02:18:46.505Z,1.97
2024-04-19T02:21:13.579Z,1.97
2024-04-19T02:23:46.830Z,1.94
2024-04-19T02:26:13.965Z,1.93
2024-04-19T02:29:00.334Z,1.93
2024-04-19T02:31:30.145Z,1.92
2024-04-19T02:34:02.592Z,1.95
2024-04-19T02:36:32.370Z,1.96
2024-04-19T02:39:02.164Z,1.91
2024-04-19T02:41:31.930Z,1.91
2024-04-19T02:44:01.726Z,1.92
2024-04-19T02:46:31.642Z,1.90
2024-04-19T02:49:04.035Z,1.89
2024-04-19T02:51:33.875Z,1.84
2024-04-19T02:54:04.122Z,1.83
2024-04-19T02:56:33.839Z,1.81
2024-04-19T02:59:03.658Z,1.81
2024-04-19T03:01:30.762Z,1.77
2024-04-19T03:04:03.620Z,1.78
2024-04-19T03:06:33.354Z,1.75
2024-04-19T03:09:05.438Z,1.71
2024-04-19T03:11:35.135Z,1.66
2024-04-19T03:14:04.818Z,1.67
2024-04-19T03:16:34.522Z,1.65
2024-04-19T03:19:07.890Z,1.64
2024-04-19T03:21:39.223Z,1.64
2024-04-19T03:24:09.381Z,1.62
2024-04-19T03:26:39.126Z,1.61
2024-04-19T03:29:08.854Z,1.62
2024-04-19T03:31:38.681Z,1.60
2024-04-19T03:34:11.010Z,1.57
2024-04-19T03:36:41.148Z,1.56
2024-04-19T03:39:10.955Z,1.50
2024-04-19T03:41:41.912Z,1.45
2024-04-19T03:44:27.483Z,1.44
2024-04-19T03:46:57.296Z,1.42
2024-04-19T03:49:29.680Z,1.40
2024-04-19T03:51:59.364Z,1.42
2024-04-19T03:54:29.100Z,1.45
2024-04-19T03:56:59.030Z,1.50
2024-04-19T03:59:28.793Z,1.53
2024-04-19T04:01:58.527Z,1.56
2024-04-19T04:04:30.993Z,1.62
2024-04-19T04:07:02.375Z,1.64
2024-04-19T04:09:32.109Z,1.73
2024-04-19T04:12:01.893Z,1.77
2024-04-19T04:14:31.621Z,1.85
2024-04-19T04:17:01.307Z,1.96
2024-04-19T04:19:33.718Z,2.04
2024-04-19T04:22:03.509Z,2.13
2024-04-19T04:24:33.284Z,2.25
2024-04-19T04:27:03.062Z,2.45
2024-04-19T04:29:32.875Z,2.57
2024-04-19T04:32:02.769Z,2.66
2024-04-19T04:34:35.485Z,2.69
2024-04-19T04:37:05.244Z,2.66
2024-04-19T04:39:35.022Z,2.61
2024-04-19T04:42:04.797Z,2.48
2024-04-19T04:44:34.665Z,2.42
2024-04-19T04:47:04.908Z,2.40
2024-04-19T04:49:37.320Z,2.42
2024-04-19T04:52:07.293Z,2.46
2024-04-19T04:54:37.078Z,2.40
2024-04-19T04:57:09.385Z,2.39
2024-04-19T04:59:39.601Z,2.37
2024-04-19T05:02:09.373Z,2.54
2024-04-19T05:04:42.030Z,2.86
2024-04-19T05:07:11.963Z,3.34
2024-04-19T05:09:41.706Z,3.76
2024-04-19T05:12:11.905Z,3.95
2024-04-19T05:14:41.697Z,4.00
2024-04-19T05:17:11.480Z,4.13
2024-04-19T05:19:43.940Z,4.31
2024-04-19T05:22:13.820Z,4.65
2024-04-19T05:24:43.819Z,4.78
2024-04-19T05:27:13.548Z,4.68
2024-04-19T05:29:43.352Z,4.52
2024-04-19T05:32:13.165Z,4.46
2024-04-19T05:34:45.902Z,4.43
2024-04-19T05:37:15.616Z,4.32
2024-04-19T05:39:45.521Z,4.30
2024-04-19T05:42:15.525Z,4.33
2024-04-19T05:44:45.373Z,4.40
2024-04-19T05:47:15.305Z,4.45
2024-04-19T05:49:47.766Z,4.44
2024-04-19T05:52:17.601Z,4.31
2024-04-19T05:54:47.512Z,4.22
2024-04-19T05:57:17.321Z,4.11
2024-04-19T05:59:47.224Z,4.09
2024-04-19T06:02:16.957Z,4.09
2024-04-19T06:04:49.383Z,3.99
2024-04-19T06:07:22.632Z,3.98
2024-04-19T06:09:52.507Z,4.00
2024-04-19T06:12:22.241Z,4.12
2024-04-19T06:14:52.079Z,4.40
2024-04-19T06:17:21.817Z,4.87
2024-04-19T06:19:54.192Z,5.01
2024-04-19T06:22:23.954Z,5.04
2024-04-19T06:24:53.782Z,5.05
2024-04-19T06:27:23.623Z,5.03
2024-04-19T06:29:53.834Z,5.09
2024-04-19T06:32:23.586Z,5.32
2024-04-19T06:34:56.084Z,5.54
2024-04-19T06:37:25.999Z,6.01
2024-04-19T06:40:05.150Z,6.40
2024-04-19T06:42:37.657Z,6.24
2024-04-19T06:45:08.270Z,6.01
2024-04-19T06:47:38.112Z,5.76
2024-04-19T06:50:10.979Z,5.58
2024-04-19T06:52:40.718Z,5.47
2024-04-19T06:55:11.802Z,5.42
2024-04-19T06:57:41.623Z,5.41
2024-04-19T07:00:22.193Z,5.42
2024-04-19T07:03:03.946Z,5.46
2024-04-19T07:05:37.366Z,5.50
2024-04-19T07:08:08.280Z,5.63
2024-04-19T07:10:41.366Z,5.73
2024-04-19T07:13:11.364Z,5.76
2024-04-19T07:15:41.177Z,5.87
2024-04-19T07:18:11.018Z,6.15
2024-04-19T07:20:43.374Z,6.34
2024-04-19T07:23:19.174Z,6.42
2024-04-19T07:25:49.146Z,6.46
2024-04-19T07:28:19.041Z,6.50
2024-04-19T07:30:48.974Z,6.49
2024-04-19T07:33:18.846Z,6.48
2024-04-19T07:35:51.495Z,6.50
2024-04-19T07:38:21.227Z,6.53
2024-04-19T07:40:50.958Z,6.52
2024-04-19T07:43:20.738Z,6.53
2024-04-19T07:45:50.645Z,6.74
2024-04-19T07:48:21.059Z,7.39
2024-04-19T07:50:53.657Z,7.90
2024-04-19T07:53:24.367Z,8.62
2024-04-19T07:55:54.118Z,9.27
2024-04-19T07:58:25.057Z,9.99
2024-04-19T08:00:55.399Z,10.50
2024-04-19T08:03:26.100Z,10.53
2024-04-19T08:05:58.633Z,10.22
2024-04-19T08:08:28.358Z,9.72
2024-04-19T08:10:58.229Z,9.03
2024-04-19T08:13:27.980Z,8.52
2024-04-19T08:15:57.879Z,8.18
2024-04-19T08:18:28.250Z,8.33
2024-04-19T08:21:00.625Z,8.93
2024-04-19T08:23:30.610Z,9.08
2024-04-19T08:26:00.363Z,8.70
2024-04-19T08:28:30.108Z,8.40
2024-04-19T08:31:00.196Z,8.34
2024-04-19T08:33:30.125Z,8.68
2024-04-19T08:36:02.742Z,8.67
2024-04-19T08:38:32.576Z,8.58
2024-04-19T08:41:05.938Z,8.56
2024-04-19T08:43:37.092Z,8.31
2024-04-19T08:46:08.751Z,8.30
2024-04-19T08:48:40.735Z,8.09
2024-04-19T08:51:20.354Z,7.84
2024-04-19T08:53:58.029Z,7.68
2024-04-19T08:56:29.317Z,7.66
2024-04-19T08:58:59.530Z,7.84
2024-04-19T09:01:29.435Z,8.49
2024-04-19T09:03:59.310Z,9.06
2024-04-19T09:06:32.268Z,9.64
2024-04-19T09:09:02.532Z,10.06
2024-04-19T09:11:32.461Z,9.84
2024-04-19T09:14:02.192Z,9.74
2024-04-19T09:16:35.116Z,9.38
2024-04-19T09:19:04.894Z,8.88
2024-04-19T09:21:37.390Z,8.48
2024-04-19T09:24:10.385Z,8.22
2024-04-19T09:26:40.212Z,7.97
2024-04-19T09:29:10.041Z,7.88
2024-04-19T09:31:41.514Z,7.77
2024-04-19T09:34:11.831Z,7.91
2024-04-19T09:36:51.409Z,8.26
2024-04-19T09:39:21.586Z,9.00
2024-04-19T09:41:52.443Z,9.59
2024-04-19T09:44:27.435Z,9.97
2024-04-19T09:47:05.604Z,10.22
2024-04-19T09:49:36.620Z,10.39
2024-04-19T09:52:16.255Z,10.33
2024-04-19T09:54:49.370Z,10.19
2024-04-19T09:57:23.230Z,9.84
2024-04-19T09:59:53.861Z,9.51
2024-04-19T10:02:31.474Z,9.25
2024-04-19T10:05:07.286Z,9.36
2024-04-19T10:07:41.208Z,10.03
2024-04-19T10:10:11.180Z,10.67
2024-04-19T10:12:43.218Z,10.91
2024-04-19T10:15:14.395Z,11.28
2024-04-19T10:17:44.338Z,11.72
2024-04-19T10:20:15.115Z,11.92
2024-04-19T10:22:47.526Z,12.08
2024-04-19T10:25:14.645Z,12.37
2024-04-19T10:27:44.573Z,12.63
2024-04-19T10:30:22.239Z,12.65
2024-04-19T10:33:01.912Z,12.81
2024-04-19T10:35:31.824Z,13.36
2024-04-19T10:38:04.319Z,13.45
2024-04-19T10:40:34.105Z,12.68
2024-04-19T10:43:07.957Z,12.86
2024-04-19T10:45:38.758Z,12.80
2024-04-19T10:48:10.012Z,13.22
2024-04-19T10:50:40.660Z,13.38
2024-04-19T10:53:15.145Z,13.87
2024-04-19T10:55:46.255Z,14.32
2024-04-19T10:58:16.384Z,14.22
2024-04-19T11:00:48.322Z,13.76
2024-04-19T11:03:20.517Z,13.24
2024-04-19T11:05:51.143Z,13.29
2024-04-19T11:08:26.013Z,13.78
2024-04-19T11:10:57.320Z,14.19
2024-04-19T11:13:27.116Z,14.35
2024-04-19T11:15:58.825Z,14.74
2024-04-19T11:18:30.064Z,15.01
2024-04-19T11:21:07.876Z,15.01
2024-04-19T11:23:44.256Z,15.16
2024-04-19T11:26:14.244Z,15.18
2024-04-19T11:28:49.128Z,14.86
2024-04-19T11:31:19.234Z,14.61
2024-04-19T11:33:49.129Z,14.27
2024-04-19T11:36:19.047Z,13.79
2024-04-19T11:38:54.031Z,13.29
2024-04-19T11:41:23.852Z,12.90
2024-04-19T11:43:54.010Z,12.74
2024-04-19T11:46:25.048Z,12.64
2024-04-19T11:48:54.994Z,12.58
2024-04-19T11:51:24.841Z,12.55
2024-04-19T11:53:57.300Z,12.46
2024-04-19T11:56:27.258Z,12.35
2024-04-19T11:58:57.145Z,12.28
2024-04-19T12:01:27.241Z,12.28
2024-04-19T12:03:57.796Z,12.27
2024-04-19T12:06:27.779Z,12.21
2024-04-19T12:09:00.327Z,12.26
2024-04-19T12:11:30.157Z,12.07
2024-04-19T12:14:50.709Z,11.78
2024-04-19T12:16:55.472Z,11.85
2024-04-19T12:19:30.551Z,12.01
2024-04-19T12:22:01.559Z,12.11
2024-04-19T12:24:37.075Z,12.12
2024-04-19T12:27:08.565Z,12.15
2024-04-19T12:29:38.668Z,12.15
2024-04-19T12:32:10.319Z,12.13
2024-04-19T12:34:42.464Z,12.00
2024-04-19T12:37:12.192Z,11.69
2024-04-19T12:39:44.660Z,11.53
2024-04-19T12:42:14.654Z,11.48
2024-04-19T12:44:49.379Z,11.40
2024-04-19T12:47:20.482Z,11.30
2024-04-19T12:49:50.246Z,11.15
2024-04-19T12:52:20.054Z,10.96
2024-04-19T12:54:52.529Z,10.73
2024-04-19T12:57:23.113Z,10.36
2024-04-19T12:59:52.918Z,10.19
2024-04-19T13:02:22.801Z,10.13
2024-04-19T13:04:52.630Z,10.23
2024-04-19T13:07:22.323Z,10.28
2024-04-19T13:09:57.120Z,10.39
2024-04-19T13:12:27.512Z,10.41
2024-04-19T13:14:57.296Z,10.28
2024-04-19T13:17:27.621Z,10.16
2024-04-19T13:19:57.762Z,10.28
2024-04-19T13:22:27.810Z,10.47
2024-04-19T13:25:00.379Z,10.66
2024-04-19T13:27:30.700Z,10.77
2024-04-19T13:30:00.662Z,10.73
2024-04-19T13:32:30.554Z,10.66
2024-04-19T13:35:00.441Z,10.49
2024-04-19T13:37:30.345Z,10.37
2024-04-19T13:40:02.829Z,10.28
2024-04-19T13:42:32.741Z,10.16
2024-04-19T13:45:02.530Z,10.03
2024-04-19T13:47:32.571Z,10.00
2024-04-19T13:50:06.454Z,10.08
2024-04-19T13:52:36.328Z,10.14
2024-04-19T13:55:09.974Z,10.29
2024-04-19T13:57:39.926Z,10.48
2024-04-19T14:00:12.925Z,10.56
2024-04-19T14:02:42.746Z,10.49
2024-04-19T14:05:12.665Z,10.46
2024-04-19T14:07:42.434Z,10.46
2024-04-19T14:10:14.897Z,10.41
2024-04-19T14:12:44.732Z,10.45
2024-04-19T14:15:14.580Z,10.50
2024-04-19T14:17:44.359Z,10.56
2024-04-19T14:20:14.205Z,10.56
2024-04-19T14:22:44.062Z,10.53
2024-04-19T14:25:16.633Z,10.51
2024-04-19T14:27:48.116Z,10.37
2024-04-19T14:30:18.209Z,10.22
2024-04-19T14:32:47.963Z,10.03
2024-04-19T14:35:17.855Z,9.87
2024-04-19T14:37:47.530Z,9.80
2024-04-19T14:40:19.993Z,9.76
2024-04-19T14:42:50.698Z,9.64
2024-04-19T14:45:20.634Z,9.54
2024-04-19T14:47:50.433Z,9.39
2024-04-19T14:50:20.447Z,9.10
2024-04-19T14:52:56.557Z,8.85
2024-04-19T14:55:36.743Z,8.65
2024-04-19T14:58:06.772Z,8.53
2024-04-19T15:00:37.268Z,8.44
2024-04-19T15:03:07.647Z,8.41
2024-04-19T15:05:37.470Z,8.32
2024-04-19T15:08:10.231Z,8.17
2024-04-19T15:10:42.830Z,7.93
2024-04-19T15:13:12.629Z,7.65
2024-04-19T15:15:42.538Z,7.24
2024-04-19T15:18:12.384Z,6.93
2024-04-19T15:20:42.161Z,6.64
2024-04-19T15:23:12.208Z,6.50
2024-04-19T15:25:44.809Z,6.44
2024-04-19T15:28:14.578Z,6.41
2024-04-19T15:30:44.656Z,6.35
2024-04-19T15:33:14.543Z,6.24
2024-04-19T15:35:46.018Z,6.14
2024-04-19T15:38:15.878Z,6.06
2024-04-19T15:40:48.659Z,6.03
2024-04-19T15:43:20.424Z,6.06
2024-04-19T15:45:51.139Z,6.09
2024-04-19T15:48:21.063Z,6.12
2024-04-19T15:50:51.665Z,6.16
2024-04-19T15:53:22.997Z,6.18
2024-04-19T15:55:56.742Z,6.14
2024-04-19T15:58:27.380Z,6.10
2024-04-19T16:00:57.185Z,6.07
2024-04-19T16:03:27.357Z,6.08
2024-04-19T16:05:57.298Z,6.13
2024-04-19T16:08:27.290Z,6.26
2024-04-19T16:10:59.694Z,6.29
2024-04-19T16:13:29.653Z,6.38
2024-04-19T16:16:05.696Z,6.46
2024-04-19T16:18:35.606Z,6.54
2024-04-19T16:21:05.426Z,6.61
2024-04-19T16:23:35.434Z,6.58
2024-04-19T16:26:07.977Z,6.59
2024-04-19T16:28:37.718Z,6.56
2024-04-19T16:31:07.914Z,6.55
2024-04-19T16:33:37.919Z,6.54
2024-04-19T16:36:09.005Z,6.50
2024-04-19T16:38:38.797Z,6.48
2024-04-19T16:41:11.327Z,6.51
2024-04-19T16:43:41.189Z,6.51
2024-04-19T16:46:12.115Z,6.54
2024-04-19T16:48:42.104Z,6.57
2024-04-19T16:51:12.067Z,6.60
2024-04-19T16:53:41.926Z,6.58
2024-04-19T16:56:14.382Z,6.53
2024-04-19T16:58:45.516Z,6.52
2024-04-19T17:01:15.727Z,6.43
2024-04-19T17:03:45.733Z,6.39
2024-04-19T17:06:15.562Z,6.36
2024-04-19T17:08:45.338Z,6.35
2024-04-19T17:11:19.305Z,6.36
2024-04-19T17:13:49.374Z,6.35
2024-04-19T17:16:19.360Z,6.37
2024-04-19T17:18:51.821Z,6.39
2024-04-19T17:21:21.599Z,6.40
2024-04-19T17:23:51.523Z,6.39
2024-04-19T17:26:24.139Z,6.37
2024-04-19T17:28:55.303Z,6.40
2024-04-19T17:31:25.181Z,6.41
2024-04-19T17:33:55.248Z,6.43
2024-04-19T17:36:26.409Z,6.41
2024-04-19T17:38:56.297Z,6.36
2024-04-19T17:41:29.166Z,6.29
2024-04-19T17:43:59.270Z,6.26
2024-04-19T17:46:30.016Z,6.25
2024-04-19T17:48:59.952Z,6.22
2024-04-19T17:51:29.993Z,6.18
2024-04-19T17:53:59.854Z,6.16
2024-04-19T17:56:32.499Z,6.17
2024-04-19T17:59:03.164Z,6.17
2024-04-19T18:01:33.095Z,6.16
2024-04-19T18:04:03.512Z,6.22
2024-04-19T18:06:33.683Z,6.18
2024-04-19T18:09:03.452Z,6.16
2024-04-19T18:11:36.070Z,6.14
2024-04-19T18:14:06.064Z,6.12
2024-04-19T18:16:36.351Z,5.92
2024-04-19T18:19:07.482Z,6.13
2024-04-19T18:21:37.475Z,6.12
2024-04-19T18:24:10.598Z,6.13
2024-04-19T18:26:43.249Z,6.10
2024-04-19T18:29:13.024Z,6.09
2024-04-19T18:31:42.768Z,6.11
2024-04-19T18:34:17.237Z,6.13
2024-04-19T18:36:48.470Z,6.11
2024-04-19T18:39:18.745Z,6.13
2024-04-19T18:41:51.410Z,6.16
2024-04-19T18:44:21.119Z,6.17
2024-04-19T18:46:50.837Z,6.24
2024-04-19T18:49:21.280Z,6.29
2024-04-19T18:51:51.114Z,6.31
2024-04-19T18:54:20.869Z,6.32
2024-04-19T18:56:53.407Z,6.26
2024-04-19T18:59:26.481Z,6.25
2024-04-19T19:01:56.419Z,6.26
2024-04-19T19:04:26.176Z,6.25
2024-04-19T19:06:56.151Z,6.26
2024-04-19T19:09:26.365Z,6.28
2024-04-19T19:12:00.863Z,6.29
2024-04-19T19:14:34.093Z,6.31
2024-04-19T19:17:05.675Z,6.31
2024-04-19T19:19:35.434Z,6.30
2024-04-19T19:22:05.248Z,6.29
2024-04-19T19:24:35.047Z,6.30
2024-04-19T19:27:07.785Z,6.33
2024-04-19T19:29:37.524Z,6.35
2024-04-19T19:32:07.777Z,6.37
2024-04-19T19:34:37.509Z,6.36
2024-04-19T19:37:07.870Z,6.37
2024-04-19T19:39:38.906Z,6.37
2024-04-19T19:42:11.970Z,6.37
2024-04-19T19:44:42.080Z,6.39
2024-04-19T19:47:12.070Z,6.41
2024-04-19T19:49:42.746Z,6.41
2024-04-19T19:52:13.312Z,6.37
2024-04-19T19:54:43.131Z,6.34
2024-04-19T19:57:15.607Z,6.30
2024-04-19T20:00:01.123Z,6.31
2024-04-19T20:02:46.567Z,6.28
2024-04-19T20:05:32.584Z,6.29
2024-04-19T20:08:02.434Z,6.29
2024-04-19T20:10:32.285Z,6.26
2024-04-19T20:13:04.902Z,6.19
2024-04-19T20:15:34.704Z,6.16
2024-04-19T20:18:04.616Z,6.14
2024-04-19T20:20:34.374Z,6.09
2024-04-19T20:23:04.531Z,6.03
2024-04-19T20:25:34.991Z,5.97
2024-04-19T20:28:07.857Z,5.88
2024-04-19T20:30:37.680Z,5.81
2024-04-19T20:33:08.689Z,5.78
2024-04-19T20:35:38.521Z,5.77
2024-04-19T20:38:08.938Z,5.75
2024-04-19T20:40:38.968Z,5.69
2024-04-19T20:43:19.774Z,5.65
2024-04-19T20:45:50.727Z,5.58
2024-04-19T20:48:20.817Z,5.54
2024-04-19T20:50:51.291Z,5.49
2024-04-19T20:53:21.355Z,5.47
2024-04-19T20:55:51.804Z,5.47
2024-04-19T20:58:24.189Z,5.47
2024-04-19T21:00:54.330Z,5.47
2024-04-19T21:03:24.138Z,5.48
2024-04-19T21:05:53.843Z,5.49
2024-04-19T21:08:23.595Z,5.51
2024-04-19T21:10:53.332Z,5.53
2024-04-19T21:13:25.767Z,5.53
2024-04-19T21:16:09.504Z,5.57
2024-04-19T21:18:45.864Z,5.62
2024-04-19T21:21:16.031Z,5.60
2024-04-19T21:23:48.120Z,5.61
2024-04-19T21:26:17.945Z,5.57
2024-04-19T21:28:53.305Z,5.59
2024-04-19T21:31:23.013Z,5.61
2024-04-19T21:33:53.292Z,5.62
2024-04-19T21:36:23.264Z,5.61
2024-04-19T21:38:53.564Z,5.60
2024-04-19T21:41:23.366Z,5.57
2024-04-19T21:43:55.755Z,5.58
2024-04-19T21:46:29.447Z,5.60
2024-04-19T21:48:59.501Z,5.63
2024-04-19T21:51:29.278Z,5.64
2024-04-19T21:53:59.068Z,5.63
2024-04-19T21:56:29.025Z,5.65
2024-04-19T21:59:04.101Z,5.63
2024-04-19T22:01:34.506Z,5.65
2024-04-19T22:04:04.551Z,5.64
2024-04-19T22:06:34.496Z,5.63
2024-04-19T22:09:04.364Z,5.60
2024-04-19T22:11:34.200Z,5.57
2024-04-19T22:14:06.537Z,5.55
2024-04-19T22:16:36.333Z,5.57
2024-04-19T22:19:06.181Z,5.58
2024-04-19T22:21:37.236Z,5.59
2024-04-19T22:24:07.504Z,5.61
2024-04-19T22:26:37.833Z,5.64
2024-04-19T22:29:10.227Z,5.69
2024-04-19T22:31:41.183Z,5.68
2024-04-19T22:34:11.230Z,5.73
2024-04-19T22:36:41.321Z,5.74
2024-04-19T22:39:11.273Z,5.69
2024-04-19T22:41:41.001Z,5.67
2024-04-19T22:44:13.315Z,5.60
2024-04-19T22:46:43.019Z,5.54
2024-04-19T22:49:12.876Z,5.53
2024-04-19T22:51:42.623Z,5.54
2024-04-19T22:54:12.414Z,5.60
2024-04-19T22:56:42.170Z,5.65
2024-04-19T22:59:14.627Z,5.70
2024-04-19T23:01:44.749Z,5.75
2024-04-19T23:04:14.763Z,5.77
2024-04-19T23:06:44.928Z,5.76
2024-04-19T23:09:14.837Z,5.74
2024-04-19T23:11:44.691Z,5.79
2024-04-19T23:14:18.781Z,5.80
2024-04-19T23:16:48.783Z,5.84
2024-04-19T23:19:18.581Z,5.80
2024-04-19T23:21:49.012Z,5.82
2024-04-19T23:24:19.248Z,5.82
2024-04-19T23:26:50.359Z,5.77
2024-04-19T23:29:22.850Z,5.81
2024-04-19T23:31:52.834Z,5.72
2024-04-19T23:34:22.780Z,5.81
2024-04-19T23:36:52.819Z,5.81
2024-04-19T23:39:20.171Z,5.88
2024-04-19T23:41:50.365Z,5.87
2024-04-19T23:44:23.313Z,5.84
2024-04-19T23:46:53.245Z,5.82
2024-04-19T23:49:23.187Z,5.77
2024-04-19T23:51:53.417Z,5.85
2024-04-19T23:54:23.612Z,5.84
2024-04-19T23:56:53.582Z,5.84
2024-04-19T23:59:26.318Z,5.83
